sensor_id;sensor_type;location;lat;lon;timestamp;P1;durP1;ratioP1;P2;durP2;ratioP2
31018;SDS011;17689;45.610;5.858;2022-08-01T00:00:36;2.30;;;2.00;;
31018;SDS011;17689;45.610;5.858;2022-08-01T00:03:02;2.70;;;2.50;;
31018;SDS011;17689;45.610;5.858;2022-08-01T00:05:28;2.67;;;2.20;;
31018;SDS011;17689;45.610;5.858;2022-08-01T00:07:54;3.33;;;2.40;;
31018;SDS011;17689;45.610;5.858;2022-08-01T00:10:21;4.40;;;2.40;;
31018;SDS011;17689;45.610;5.858;2022-08-01T00:12:47;3.50;;;2.40;;
31018;SDS011;17689;45.610;5.858;2022-08-01T00:15:14;2.60;;;2.40;;
31018;SDS011;17689;45.610;5.858;2022-08-01T00:17:41;5.27;;;2.60;;
31018;SDS011;17689;45.610;5.858;2022-08-01T00:20:09;2.60;;;2.40;;
31018;SDS011;17689;45.610;5.858;2022-08-01T00:22:35;4.10;;;2.27;;
31018;SDS011;17689;45.610;5.858;2022-08-01T00:25:02;4.53;;;2.53;;
31018;SDS011;17689;45.610;5.858;2022-08-01T00:27:29;4.37;;;2.13;;
31018;SDS011;17689;45.610;5.858;2022-08-01T00:29:55;2.60;;;2.40;;
31018;SDS011;17689;45.610;5.858;2022-08-01T00:32:21;3.10;;;2.30;;
31018;SDS011;17689;45.610;5.858;2022-08-01T00:34:47;5.37;;;2.53;;
31018;SDS011;17689;45.610;5.858;2022-08-01T00:37:13;2.50;;;2.30;;
31018;SDS011;17689;45.610;5.858;2022-08-01T00:39:40;3.27;;;2.43;;
31018;SDS011;17689;45.610;5.858;2022-08-01T00:42:07;3.53;;;2.60;;
31018;SDS011;17689;45.610;5.858;2022-08-01T00:44:33;3.30;;;2.40;;
31018;SDS011;17689;45.610;5.858;2022-08-01T00:47:00;3.03;;;2.33;;
31018;SDS011;17689;45.610;5.858;2022-08-01T00:49:26;3.43;;;2.50;;
31018;SDS011;17689;45.610;5.858;2022-08-01T00:51:52;3.03;;;2.67;;
31018;SDS011;17689;45.610;5.858;2022-08-01T00:54:19;2.93;;;2.60;;
31018;SDS011;17689;45.610;5.858;2022-08-01T00:56:45;5.50;;;2.40;;
31018;SDS011;17689;45.610;5.858;2022-08-01T00:59:12;4.43;;;2.80;;
31018;SDS011;17689;45.610;5.858;2022-08-01T01:01:40;2.70;;;2.50;;
31018;SDS011;17689;45.610;5.858;2022-08-01T01:04:06;2.77;;;2.40;;
31018;SDS011;17689;45.610;5.858;2022-08-01T01:14:25;3.10;;;2.40;;
31018;SDS011;17689;45.610;5.858;2022-08-01T01:16:53;3.43;;;2.60;;
31018;SDS011;17689;45.610;5.858;2022-08-01T01:19:21;3.20;;;2.90;;
31018;SDS011;17689;45.610;5.858;2022-08-01T01:22:08;3.80;;;2.73;;
31018;SDS011;17689;45.610;5.858;2022-08-01T01:24:49;3.40;;;2.67;;
31018;SDS011;17689;45.610;5.858;2022-08-01T01:27:20;3.30;;;2.60;;
31018;SDS011;17689;45.610;5.858;2022-08-01T01:29:51;4.63;;;3.00;;
31018;SDS011;17689;45.610;5.858;2022-08-01T01:34:45;5.13;;;2.83;;
31018;SDS011;17689;45.610;5.858;2022-08-01T01:37:13;8.03;;;3.30;;
31018;SDS011;17689;45.610;5.858;2022-08-01T01:39:41;3.20;;;2.90;;
31018;SDS011;17689;45.610;5.858;2022-08-01T01:42:08;3.17;;;2.87;;
31018;SDS011;17689;45.610;5.858;2022-08-01T01:44:35;4.17;;;2.70;;
31018;SDS011;17689;45.610;5.858;2022-08-01T01:47:02;3.20;;;2.90;;
31018;SDS011;17689;45.610;5.858;2022-08-01T01:49:28;3.53;;;2.90;;
31018;SDS011;17689;45.610;5.858;2022-08-01T01:51:56;2.97;;;2.77;;
31018;SDS011;17689;45.610;5.858;2022-08-01T01:54:23;3.33;;;3.03;;
31018;SDS011;17689;45.610;5.858;2022-08-01T01:56:50;3.83;;;2.90;;
31018;SDS011;17689;45.610;5.858;2022-08-01T01:59:21;3.80;;;3.10;;
31018;SDS011;17689;45.610;5.858;2022-08-01T02:01:49;3.30;;;2.97;;
31018;SDS011;17689;45.610;5.858;2022-08-01T02:04:17;5.40;;;3.20;;
31018;SDS011;17689;45.610;5.858;2022-08-01T02:06:44;3.97;;;3.17;;
31018;SDS011;17689;45.610;5.858;2022-08-01T02:09:11;3.10;;;2.70;;
31018;SDS011;17689;45.610;5.858;2022-08-01T02:11:40;3.27;;;2.97;;
31018;SDS011;17689;45.610;5.858;2022-08-01T02:14:06;2.73;;;2.53;;
31018;SDS011;17689;45.610;5.858;2022-08-01T02:16:34;2.80;;;2.60;;
31018;SDS011;17689;45.610;5.858;2022-08-01T02:19:01;3.37;;;2.70;;
31018;SDS011;17689;45.610;5.858;2022-08-01T02:21:38;3.20;;;2.80;;
31018;SDS011;17689;45.610;5.858;2022-08-01T02:24:10;3.90;;;2.90;;
31018;SDS011;17689;45.610;5.858;2022-08-01T02:26:39;3.40;;;3.10;;
31018;SDS011;17689;45.610;5.858;2022-08-01T02:29:06;4.00;;;3.10;;
31018;SDS011;17689;45.610;5.858;2022-08-01T02:31:35;3.47;;;2.80;;
31018;SDS011;17689;45.610;5.858;2022-08-01T02:34:04;3.07;;;2.60;;
31018;SDS011;17689;45.610;5.858;2022-08-01T02:36:35;4.33;;;3.03;;
31018;SDS011;17689;45.610;5.858;2022-08-01T02:39:03;3.47;;;3.17;;
31018;SDS011;17689;45.610;5.858;2022-08-01T02:41:32;3.30;;;2.90;;
31018;SDS011;17689;45.610;5.858;2022-08-01T02:44:00;3.10;;;2.70;;
31018;SDS011;17689;45.610;5.858;2022-08-01T02:49:27;3.40;;;2.80;;
31018;SDS011;17689;45.610;5.858;2022-08-01T02:51:55;3.23;;;2.93;;
31018;SDS011;17689;45.610;5.858;2022-08-01T02:54:22;3.47;;;3.00;;
31018;SDS011;17689;45.610;5.858;2022-08-01T02:56:49;3.57;;;3.27;;
31018;SDS011;17689;45.610;5.858;2022-08-01T02:59:17;3.50;;;3.20;;
31018;SDS011;17689;45.610;5.858;2022-08-01T03:01:44;4.57;;;3.20;;
31018;SDS011;17689;45.610;5.858;2022-08-01T03:04:11;4.90;;;3.20;;
31018;SDS011;17689;45.610;5.858;2022-08-01T03:06:38;4.73;;;3.40;;
31018;SDS011;17689;45.610;5.858;2022-08-01T03:09:04;3.43;;;3.13;;
31018;SDS011;17689;45.610;5.858;2022-08-01T03:11:32;3.30;;;3.00;;
31018;SDS011;17689;45.610;5.858;2022-08-01T03:14:02;3.77;;;3.00;;
31018;SDS011;17689;45.610;5.858;2022-08-01T03:16:28;3.47;;;2.97;;
31018;SDS011;17689;45.610;5.858;2022-08-01T03:18:56;3.43;;;3.13;;
31018;SDS011;17689;45.610;5.858;2022-08-01T03:21:23;3.57;;;3.17;;
31018;SDS011;17689;45.610;5.858;2022-08-01T03:23:50;3.43;;;3.07;;
31018;SDS011;17689;45.610;5.858;2022-08-01T03:26:22;3.67;;;3.10;;
31018;SDS011;17689;45.610;5.858;2022-08-01T03:28:49;4.07;;;2.97;;
31018;SDS011;17689;45.610;5.858;2022-08-01T03:31:17;3.20;;;2.90;;
31018;SDS011;17689;45.610;5.858;2022-08-01T03:33:43;6.33;;;3.40;;
31018;SDS011;17689;45.610;5.858;2022-08-01T03:36:09;3.73;;;2.60;;
31018;SDS011;17689;45.610;5.858;2022-08-01T03:38:37;3.60;;;3.20;;
31018;SDS011;17689;45.610;5.858;2022-08-01T03:41:08;5.03;;;3.40;;
31018;SDS011;17689;45.610;5.858;2022-08-01T03:43:38;3.47;;;3.17;;
31018;SDS011;17689;45.610;5.858;2022-08-01T03:46:07;4.20;;;3.20;;
31018;SDS011;17689;45.610;5.858;2022-08-01T03:48:35;3.73;;;3.40;;
31018;SDS011;17689;45.610;5.858;2022-08-01T03:51:03;3.83;;;3.27;;
31018;SDS011;17689;45.610;5.858;2022-08-01T03:53:30;3.37;;;3.00;;
31018;SDS011;17689;45.610;5.858;2022-08-01T03:55:57;3.90;;;3.30;;
31018;SDS011;17689;45.610;5.858;2022-08-01T03:58:24;3.97;;;3.03;;
31018;SDS011;17689;45.610;5.858;2022-08-01T04:00:51;4.20;;;3.50;;
31018;SDS011;17689;45.610;5.858;2022-08-01T04:03:17;5.10;;;3.13;;
31018;SDS011;17689;45.610;5.858;2022-08-01T04:05:44;4.27;;;3.27;;
31018;SDS011;17689;45.610;5.858;2022-08-01T04:08:10;3.73;;;3.00;;
31018;SDS011;17689;45.610;5.858;2022-08-01T04:10:36;4.93;;;3.60;;
31018;SDS011;17689;45.610;5.858;2022-08-01T04:13:02;3.87;;;3.47;;
31018;SDS011;17689;45.610;5.858;2022-08-01T04:15:29;6.47;;;2.93;;
31018;SDS011;17689;45.610;5.858;2022-08-01T04:17:55;4.20;;;3.80;;
31018;SDS011;17689;45.610;5.858;2022-08-01T04:20:21;6.10;;;3.30;;
31018;SDS011;17689;45.610;5.858;2022-08-01T04:22:47;5.07;;;3.67;;
31018;SDS011;17689;45.610;5.858;2022-08-01T04:25:27;4.80;;;3.60;;
31018;SDS011;17689;45.610;5.858;2022-08-01T04:27:55;3.77;;;3.47;;
31018;SDS011;17689;45.610;5.858;2022-08-01T04:30:25;6.70;;;3.60;;
31018;SDS011;17689;45.610;5.858;2022-08-01T04:32:54;7.07;;;3.60;;
31018;SDS011;17689;45.610;5.858;2022-08-01T04:35:21;9.07;;;3.50;;
31018;SDS011;17689;45.610;5.858;2022-08-01T04:37:47;6.47;;;4.00;;
31018;SDS011;17689;45.610;5.858;2022-08-01T04:40:16;6.87;;;4.00;;
31018;SDS011;17689;45.610;5.858;2022-08-01T04:42:43;5.83;;;3.40;;
31018;SDS011;17689;45.610;5.858;2022-08-01T04:45:09;5.60;;;3.60;;
31018;SDS011;17689;45.610;5.858;2022-08-01T04:47:36;5.10;;;3.40;;
31018;SDS011;17689;45.610;5.858;2022-08-01T04:50:06;5.27;;;3.80;;
31018;SDS011;17689;45.610;5.858;2022-08-01T04:52:33;5.50;;;3.60;;
31018;SDS011;17689;45.610;5.858;2022-08-01T04:54:59;6.87;;;3.50;;
31018;SDS011;17689;45.610;5.858;2022-08-01T04:57:26;8.77;;;4.00;;
31018;SDS011;17689;45.610;5.858;2022-08-01T04:59:52;5.77;;;3.50;;
31018;SDS011;17689;45.610;5.858;2022-08-01T05:02:22;6.03;;;3.87;;
31018;SDS011;17689;45.610;5.858;2022-08-01T05:04:48;3.77;;;3.30;;
31018;SDS011;17689;45.610;5.858;2022-08-01T05:07:15;4.57;;;3.70;;
31018;SDS011;17689;45.610;5.858;2022-08-01T05:09:41;4.00;;;3.60;;
31018;SDS011;17689;45.610;5.858;2022-08-01T05:12:08;4.00;;;3.60;;
31018;SDS011;17689;45.610;5.858;2022-08-01T05:14:35;4.40;;;3.50;;
31018;SDS011;17689;45.610;5.858;2022-08-01T05:17:02;4.20;;;3.43;;
31018;SDS011;17689;45.610;5.858;2022-08-01T05:19:29;4.30;;;3.47;;
31018;SDS011;17689;45.610;5.858;2022-08-01T05:21:57;3.87;;;3.57;;
31018;SDS011;17689;45.610;5.858;2022-08-01T05:24:23;3.67;;;3.30;;
31018;SDS011;17689;45.610;5.858;2022-08-01T05:26:49;5.67;;;3.53;;
31018;SDS011;17689;45.610;5.858;2022-08-01T05:29:16;5.43;;;3.70;;
31018;SDS011;17689;45.610;5.858;2022-08-01T05:31:42;4.80;;;3.70;;
31018;SDS011;17689;45.610;5.858;2022-08-01T05:34:08;7.03;;;3.70;;
31018;SDS011;17689;45.610;5.858;2022-08-01T05:36:34;6.87;;;3.60;;
31018;SDS011;17689;45.610;5.858;2022-08-01T05:39:02;5.40;;;3.97;;
31018;SDS011;17689;45.610;5.858;2022-08-01T05:41:28;6.97;;;3.80;;
31018;SDS011;17689;45.610;5.858;2022-08-01T05:43:55;6.03;;;3.90;;
31018;SDS011;17689;45.610;5.858;2022-08-01T05:46:21;5.23;;;3.50;;
31018;SDS011;17689;45.610;5.858;2022-08-01T05:48:48;4.43;;;3.57;;
31018;SDS011;17689;45.610;5.858;2022-08-01T05:51:14;5.57;;;3.30;;
31018;SDS011;17689;45.610;5.858;2022-08-01T05:53:40;6.30;;;3.70;;
31018;SDS011;17689;45.610;5.858;2022-08-01T05:56:06;3.60;;;3.30;;
31018;SDS011;17689;45.610;5.858;2022-08-01T05:58:32;5.73;;;3.40;;
31018;SDS011;17689;45.610;5.858;2022-08-01T06:00:58;6.57;;;3.80;;
31018;SDS011;17689;45.610;5.858;2022-08-01T06:03:25;4.67;;;3.50;;
31018;SDS011;17689;45.610;5.858;2022-08-01T06:05:51;6.67;;;3.77;;
31018;SDS011;17689;45.610;5.858;2022-08-01T06:08:18;5.03;;;3.13;;
31018;SDS011;17689;45.610;5.858;2022-08-01T06:10:44;7.00;;;3.30;;
31018;SDS011;17689;45.610;5.858;2022-08-01T06:13:10;5.70;;;3.60;;
31018;SDS011;17689;45.610;5.858;2022-08-01T06:15:36;5.57;;;3.63;;
31018;SDS011;17689;45.610;5.858;2022-08-01T06:18:02;7.43;;;3.80;;
31018;SDS011;17689;45.610;5.858;2022-08-01T06:20:30;4.00;;;3.40;;
31018;SDS011;17689;45.610;5.858;2022-08-01T06:22:56;8.57;;;3.70;;
31018;SDS011;17689;45.610;5.858;2022-08-01T06:25:22;5.77;;;3.77;;
31018;SDS011;17689;45.610;5.858;2022-08-01T06:27:48;5.53;;;3.50;;
31018;SDS011;17689;45.610;5.858;2022-08-01T06:30:15;4.33;;;3.40;;
31018;SDS011;17689;45.610;5.858;2022-08-01T06:32:41;4.60;;;3.40;;
31018;SDS011;17689;45.610;5.858;2022-08-01T06:35:07;6.97;;;3.50;;
31018;SDS011;17689;45.610;5.858;2022-08-01T06:37:33;3.80;;;3.23;;
31018;SDS011;17689;45.610;5.858;2022-08-01T06:40:00;5.20;;;3.60;;
31018;SDS011;17689;45.610;5.858;2022-08-01T06:42:27;5.33;;;3.43;;
31018;SDS011;17689;45.610;5.858;2022-08-01T06:44:53;5.60;;;3.63;;
31018;SDS011;17689;45.610;5.858;2022-08-01T06:47:20;5.93;;;3.70;;
31018;SDS011;17689;45.610;5.858;2022-08-01T06:49:46;6.13;;;3.47;;
31018;SDS011;17689;45.610;5.858;2022-08-01T06:52:12;4.13;;;3.37;;
31018;SDS011;17689;45.610;5.858;2022-08-01T06:54:38;6.73;;;3.70;;
31018;SDS011;17689;45.610;5.858;2022-08-01T06:57:04;5.93;;;3.20;;
31018;SDS011;17689;45.610;5.858;2022-08-01T06:59:31;5.67;;;3.50;;
31018;SDS011;17689;45.610;5.858;2022-08-01T07:01:57;6.77;;;3.57;;
31018;SDS011;17689;45.610;5.858;2022-08-01T07:04:23;6.17;;;3.20;;
31018;SDS011;17689;45.610;5.858;2022-08-01T07:06:49;6.43;;;3.67;;
31018;SDS011;17689;45.610;5.858;2022-08-01T07:09:15;5.57;;;3.60;;
31018;SDS011;17689;45.610;5.858;2022-08-01T07:11:42;4.57;;;3.23;;
31018;SDS011;17689;45.610;5.858;2022-08-01T07:14:08;4.83;;;3.13;;
31018;SDS011;17689;45.610;5.858;2022-08-01T07:16:34;6.23;;;3.27;;
31018;SDS011;17689;45.610;5.858;2022-08-01T07:19:00;4.77;;;3.50;;
31018;SDS011;17689;45.610;5.858;2022-08-01T07:21:26;4.70;;;3.47;;
31018;SDS011;17689;45.610;5.858;2022-08-01T07:23:52;7.10;;;3.30;;
31018;SDS011;17689;45.610;5.858;2022-08-01T07:26:19;4.90;;;3.10;;
31018;SDS011;17689;45.610;5.858;2022-08-01T07:28:45;10.50;;;3.67;;
31018;SDS011;17689;45.610;5.858;2022-08-01T07:31:11;7.63;;;3.20;;
31018;SDS011;17689;45.610;5.858;2022-08-01T07:33:37;5.83;;;3.73;;
31018;SDS011;17689;45.610;5.858;2022-08-01T07:36:03;8.83;;;3.33;;
31018;SDS011;17689;45.610;5.858;2022-08-01T07:38:30;5.80;;;3.20;;
31018;SDS011;17689;45.610;5.858;2022-08-01T07:40:56;7.00;;;3.20;;
31018;SDS011;17689;45.610;5.858;2022-08-01T07:43:22;6.43;;;3.20;;
31018;SDS011;17689;45.610;5.858;2022-08-01T07:45:48;6.20;;;3.40;;
31018;SDS011;17689;45.610;5.858;2022-08-01T07:48:14;5.07;;;2.90;;
31018;SDS011;17689;45.610;5.858;2022-08-01T07:50:40;4.83;;;3.30;;
31018;SDS011;17689;45.610;5.858;2022-08-01T07:53:06;4.87;;;3.00;;
31018;SDS011;17689;45.610;5.858;2022-08-01T07:55:35;5.10;;;3.10;;
31018;SDS011;17689;45.610;5.858;2022-08-01T07:58:01;8.60;;;3.67;;
31018;SDS011;17689;45.610;5.858;2022-08-01T08:00:27;3.87;;;3.10;;
31018;SDS011;17689;45.610;5.858;2022-08-01T08:02:54;5.93;;;3.40;;
31018;SDS011;17689;45.610;5.858;2022-08-01T08:05:23;15.40;;;4.17;;
31018;SDS011;17689;45.610;5.858;2022-08-01T08:07:49;6.13;;;3.00;;
31018;SDS011;17689;45.610;5.858;2022-08-01T08:10:16;4.07;;;3.20;;
31018;SDS011;17689;45.610;5.858;2022-08-01T08:12:42;5.17;;;2.90;;
31018;SDS011;17689;45.610;5.858;2022-08-01T08:15:08;4.63;;;2.80;;
31018;SDS011;17689;45.610;5.858;2022-08-01T08:17:35;4.73;;;3.13;;
31018;SDS011;17689;45.610;5.858;2022-08-01T08:20:02;5.20;;;3.00;;
31018;SDS011;17689;45.610;5.858;2022-08-01T08:22:28;10.40;;;3.30;;
31018;SDS011;17689;45.610;5.858;2022-08-01T08:24:55;6.23;;;3.13;;
31018;SDS011;17689;45.610;5.858;2022-08-01T08:27:21;5.77;;;3.20;;
31018;SDS011;17689;45.610;5.858;2022-08-01T08:29:47;6.43;;;3.17;;
31018;SDS011;17689;45.610;5.858;2022-08-01T08:32:13;8.17;;;3.37;;
31018;SDS011;17689;45.610;5.858;2022-08-01T08:34:39;5.53;;;3.00;;
31018;SDS011;17689;45.610;5.858;2022-08-01T08:37:05;6.47;;;3.20;;
31018;SDS011;17689;45.610;5.858;2022-08-01T08:39:32;7.67;;;2.90;;
31018;SDS011;17689;45.610;5.858;2022-08-01T08:42:01;2.93;;;2.60;;
31018;SDS011;17689;45.610;5.858;2022-08-01T08:44:27;6.40;;;2.87;;
31018;SDS011;17689;45.610;5.858;2022-08-01T08:46:53;9.60;;;2.90;;
31018;SDS011;17689;45.610;5.858;2022-08-01T08:49:22;10.23;;;3.03;;
31018;SDS011;17689;45.610;5.858;2022-08-01T08:51:49;9.60;;;2.70;;
31018;SDS011;17689;45.610;5.858;2022-08-01T08:54:19;5.57;;;2.57;;
31018;SDS011;17689;45.610;5.858;2022-08-01T08:56:46;4.53;;;2.70;;
31018;SDS011;17689;45.610;5.858;2022-08-01T08:59:12;10.70;;;3.20;;
31018;SDS011;17689;45.610;5.858;2022-08-01T09:01:39;18.37;;;3.70;;
31018;SDS011;17689;45.610;5.858;2022-08-01T09:04:05;6.97;;;2.70;;
31018;SDS011;17689;45.610;5.858;2022-08-01T09:06:32;6.47;;;2.90;;
31018;SDS011;17689;45.610;5.858;2022-08-01T09:08:58;9.13;;;2.93;;
31018;SDS011;17689;45.610;5.858;2022-08-01T09:11:25;2.80;;;2.37;;
31018;SDS011;17689;45.610;5.858;2022-08-01T09:14:01;3.33;;;2.43;;
31018;SDS011;17689;45.610;5.858;2022-08-01T09:16:28;5.83;;;2.40;;
31018;SDS011;17689;45.610;5.858;2022-08-01T09:18:54;5.33;;;2.40;;
31018;SDS011;17689;45.610;5.858;2022-08-01T09:21:31;3.67;;;2.70;;
31018;SDS011;17689;45.610;5.858;2022-08-01T09:23:58;2.70;;;2.27;;
31018;SDS011;17689;45.610;5.858;2022-08-01T09:26:30;3.87;;;2.50;;
31018;SDS011;17689;45.610;5.858;2022-08-01T09:28:58;3.33;;;2.50;;
31018;SDS011;17689;45.610;5.858;2022-08-01T09:31:27;4.87;;;2.40;;
31018;SDS011;17689;45.610;5.858;2022-08-01T09:33:57;4.17;;;2.57;;
31018;SDS011;17689;45.610;5.858;2022-08-01T09:36:24;2.60;;;2.30;;
31018;SDS011;17689;45.610;5.858;2022-08-01T09:38:51;3.97;;;2.30;;
31018;SDS011;17689;45.610;5.858;2022-08-01T09:41:28;3.80;;;2.73;;
31018;SDS011;17689;45.610;5.858;2022-08-01T09:43:55;5.83;;;2.40;;
31018;SDS011;17689;45.610;5.858;2022-08-01T09:46:22;6.07;;;2.40;;
31018;SDS011;17689;45.610;5.858;2022-08-01T09:48:55;4.50;;;2.70;;
31018;SDS011;17689;45.610;5.858;2022-08-01T09:51:54;3.90;;;2.23;;
31018;SDS011;17689;45.610;5.858;2022-08-01T09:54:13;6.67;;;2.43;;
31018;SDS011;17689;45.610;5.858;2022-08-01T09:56:53;6.13;;;2.57;;
31018;SDS011;17689;45.610;5.858;2022-08-01T09:59:19;3.03;;;2.13;;
31018;SDS011;17689;45.610;5.858;2022-08-01T10:01:46;3.07;;;2.30;;
31018;SDS011;17689;45.610;5.858;2022-08-01T10:04:13;3.43;;;2.53;;
31018;SDS011;17689;45.610;5.858;2022-08-01T10:06:40;3.27;;;2.30;;
31018;SDS011;17689;45.610;5.858;2022-08-01T10:09:13;2.77;;;2.30;;
31018;SDS011;17689;45.610;5.858;2022-08-01T10:11:42;3.47;;;2.30;;
31018;SDS011;17689;45.610;5.858;2022-08-01T10:14:10;5.37;;;2.43;;
31018;SDS011;17689;45.610;5.858;2022-08-01T10:16:38;3.43;;;2.30;;
31018;SDS011;17689;45.610;5.858;2022-08-01T10:19:06;4.47;;;2.40;;
31018;SDS011;17689;45.610;5.858;2022-08-01T10:21:33;6.03;;;2.40;;
31018;SDS011;17689;45.610;5.858;2022-08-01T10:23:59;5.37;;;2.43;;
31018;SDS011;17689;45.610;5.858;2022-08-01T10:26:28;3.70;;;2.23;;
31018;SDS011;17689;45.610;5.858;2022-08-01T10:28:55;2.97;;;2.20;;
31018;SDS011;17689;45.610;5.858;2022-08-01T10:31:21;2.67;;;2.40;;
31018;SDS011;17689;45.610;5.858;2022-08-01T10:33:47;3.23;;;2.30;;
31018;SDS011;17689;45.610;5.858;2022-08-01T10:36:14;2.47;;;2.20;;
31018;SDS011;17689;45.610;5.858;2022-08-01T10:38:43;4.20;;;2.40;;
31018;SDS011;17689;45.610;5.858;2022-08-01T10:41:09;2.77;;;2.20;;
31018;SDS011;17689;45.610;5.858;2022-08-01T10:43:35;2.53;;;2.33;;
31018;SDS011;17689;45.610;5.858;2022-08-01T10:46:02;4.20;;;2.00;;
31018;SDS011;17689;45.610;5.858;2022-08-01T10:51:13;4.17;;;2.30;;
31018;SDS011;17689;45.610;5.858;2022-08-01T10:53:51;2.97;;;2.07;;
31018;SDS011;17689;45.610;5.858;2022-08-01T10:56:17;2.53;;;2.20;;
31018;SDS011;17689;45.610;5.858;2022-08-01T10:58:44;3.57;;;2.27;;
31018;SDS011;17689;45.610;5.858;2022-08-01T11:01:22;5.70;;;2.13;;
31018;SDS011;17689;45.610;5.858;2022-08-01T11:09:03;5.27;;;2.10;;
31018;SDS011;17689;45.610;5.858;2022-08-01T11:11:30;7.33;;;2.70;;
31018;SDS011;17689;45.610;5.858;2022-08-01T11:16:40;9.63;;;2.10;;
31018;SDS011;17689;45.610;5.858;2022-08-01T11:19:07;3.07;;;1.93;;
31018;SDS011;17689;45.610;5.858;2022-08-01T11:27:29;5.87;;;2.00;;
31018;SDS011;17689;45.610;5.858;2022-08-01T11:32:55;2.90;;;1.70;;
31018;SDS011;17689;45.610;5.858;2022-08-01T11:35:21;2.90;;;1.90;;
31018;SDS011;17689;45.610;5.858;2022-08-01T11:37:49;2.30;;;2.03;;
31018;SDS011;17689;45.610;5.858;2022-08-01T11:40:26;3.13;;;1.90;;
31018;SDS011;17689;45.610;5.858;2022-08-01T11:45:49;4.23;;;2.00;;
31018;SDS011;17689;45.610;5.858;2022-08-01T11:48:22;2.40;;;2.00;;
31018;SDS011;17689;45.610;5.858;2022-08-01T11:50:52;3.87;;;1.83;;
31018;SDS011;17689;45.610;5.858;2022-08-01T11:53:19;4.83;;;2.30;;
31018;SDS011;17689;45.610;5.858;2022-08-01T11:55:49;1.70;;;1.60;;
31018;SDS011;17689;45.610;5.858;2022-08-01T11:58:16;2.77;;;1.70;;
31018;SDS011;17689;45.610;5.858;2022-08-01T12:00:49;2.53;;;1.80;;
31018;SDS011;17689;45.610;5.858;2022-08-01T12:03:15;3.00;;;1.70;;
31018;SDS011;17689;45.610;5.858;2022-08-01T12:05:43;1.80;;;1.70;;
31018;SDS011;17689;45.610;5.858;2022-08-01T12:08:09;7.83;;;2.40;;
31018;SDS011;17689;45.610;5.858;2022-08-01T12:10:36;3.87;;;1.83;;
31018;SDS011;17689;45.610;5.858;2022-08-01T12:13:05;2.13;;;1.70;;
31018;SDS011;17689;45.610;5.858;2022-08-01T12:15:33;10.10;;;2.23;;
31018;SDS011;17689;45.610;5.858;2022-08-01T12:18:00;3.67;;;1.57;;
31018;SDS011;17689;45.610;5.858;2022-08-01T12:20:30;4.70;;;1.90;;
31018;SDS011;17689;45.610;5.858;2022-08-01T12:22:58;3.37;;;1.70;;
31018;SDS011;17689;45.610;5.858;2022-08-01T12:25:25;3.97;;;1.60;;
31018;SDS011;17689;45.610;5.858;2022-08-01T12:27:52;4.97;;;1.70;;
31018;SDS011;17689;45.610;5.858;2022-08-01T12:30:19;5.47;;;1.80;;
31018;SDS011;17689;45.610;5.858;2022-08-01T12:32:50;8.90;;;1.97;;
31018;SDS011;17689;45.610;5.858;2022-08-01T12:35:17;2.47;;;1.60;;
31018;SDS011;17689;45.610;5.858;2022-08-01T12:37:45;4.70;;;1.80;;
31018;SDS011;17689;45.610;5.858;2022-08-01T12:40:22;2.03;;;1.70;;
31018;SDS011;17689;45.610;5.858;2022-08-01T12:42:50;2.00;;;1.63;;
31018;SDS011;17689;45.610;5.858;2022-08-01T12:45:18;2.27;;;1.53;;
31018;SDS011;17689;45.610;5.858;2022-08-01T12:47:45;3.10;;;1.60;;
31018;SDS011;17689;45.610;5.858;2022-08-01T12:50:16;4.53;;;1.70;;
31018;SDS011;17689;45.610;5.858;2022-08-01T12:52:43;3.73;;;1.83;;
31018;SDS011;17689;45.610;5.858;2022-08-01T12:55:17;3.30;;;1.63;;
31018;SDS011;17689;45.610;5.858;2022-08-01T12:57:47;2.63;;;1.67;;
31018;SDS011;17689;45.610;5.858;2022-08-01T13:00:23;5.47;;;1.70;;
31018;SDS011;17689;45.610;5.858;2022-08-01T13:02:59;1.87;;;1.67;;
31018;SDS011;17689;45.610;5.858;2022-08-01T13:05:25;2.13;;;1.67;;
31018;SDS011;17689;45.610;5.858;2022-08-01T13:07:52;7.30;;;2.10;;
31018;SDS011;17689;45.610;5.858;2022-08-01T13:10:28;2.30;;;1.40;;
31018;SDS011;17689;45.610;5.858;2022-08-01T13:12:56;2.87;;;1.70;;
31018;SDS011;17689;45.610;5.858;2022-08-01T13:15:24;9.30;;;2.00;;
31018;SDS011;17689;45.610;5.858;2022-08-01T13:17:51;1.90;;;1.70;;
31018;SDS011;17689;45.610;5.858;2022-08-01T13:20:31;1.90;;;1.70;;
31018;SDS011;17689;45.610;5.858;2022-08-01T13:23:11;4.10;;;1.83;;
31018;SDS011;17689;45.610;5.858;2022-08-01T13:25:47;7.13;;;1.90;;
31018;SDS011;17689;45.610;5.858;2022-08-01T13:28:14;2.30;;;1.60;;
31018;SDS011;17689;45.610;5.858;2022-08-01T13:30:50;1.77;;;1.57;;
31018;SDS011;17689;45.610;5.858;2022-08-01T13:33:16;5.53;;;2.00;;
31018;SDS011;17689;45.610;5.858;2022-08-01T13:35:42;2.37;;;1.70;;
31018;SDS011;17689;45.610;5.858;2022-08-01T13:38:08;2.70;;;1.80;;
31018;SDS011;17689;45.610;5.858;2022-08-01T13:40:34;7.00;;;2.40;;
31018;SDS011;17689;45.610;5.858;2022-08-01T13:43:00;3.80;;;1.83;;
31018;SDS011;17689;45.610;5.858;2022-08-01T13:45:27;3.33;;;1.67;;
31018;SDS011;17689;45.610;5.858;2022-08-01T13:47:53;9.13;;;2.40;;
31018;SDS011;17689;45.610;5.858;2022-08-01T13:50:20;3.13;;;2.00;;
31018;SDS011;17689;45.610;5.858;2022-08-01T13:52:46;2.67;;;1.83;;
31018;SDS011;17689;45.610;5.858;2022-08-01T13:55:12;3.03;;;1.70;;
31018;SDS011;17689;45.610;5.858;2022-08-01T13:57:38;3.07;;;1.80;;
31018;SDS011;17689;45.610;5.858;2022-08-01T14:00:05;2.43;;;1.50;;
31018;SDS011;17689;45.610;5.858;2022-08-01T14:02:31;4.30;;;1.77;;
31018;SDS011;17689;45.610;5.858;2022-08-01T14:04:58;2.57;;;1.87;;
31018;SDS011;17689;45.610;5.858;2022-08-01T14:07:26;2.27;;;1.50;;
31018;SDS011;17689;45.610;5.858;2022-08-01T14:09:52;3.47;;;1.80;;
31018;SDS011;17689;45.610;5.858;2022-08-01T14:12:18;2.37;;;1.60;;
31018;SDS011;17689;45.610;5.858;2022-08-01T14:14:45;2.00;;;1.80;;
31018;SDS011;17689;45.610;5.858;2022-08-01T14:17:11;2.77;;;1.87;;
31018;SDS011;17689;45.610;5.858;2022-08-01T14:19:37;2.13;;;1.90;;
31018;SDS011;17689;45.610;5.858;2022-08-01T14:22:03;2.00;;;1.63;;
31018;SDS011;17689;45.610;5.858;2022-08-01T14:24:29;3.37;;;1.70;;
31018;SDS011;17689;45.610;5.858;2022-08-01T14:26:55;1.70;;;1.53;;
31018;SDS011;17689;45.610;5.858;2022-08-01T14:29:22;4.00;;;1.90;;
31018;SDS011;17689;45.610;5.858;2022-08-01T14:31:48;3.77;;;1.73;;
31018;SDS011;17689;45.610;5.858;2022-08-01T14:34:14;2.33;;;1.70;;
31018;SDS011;17689;45.610;5.858;2022-08-01T14:36:41;1.70;;;1.60;;
31018;SDS011;17689;45.610;5.858;2022-08-01T14:39:07;2.53;;;2.00;;
31018;SDS011;17689;45.610;5.858;2022-08-01T14:41:34;2.50;;;1.67;;
31018;SDS011;17689;45.610;5.858;2022-08-01T14:44:00;2.67;;;1.60;;
31018;SDS011;17689;45.610;5.858;2022-08-01T14:46:26;1.60;;;1.50;;
31018;SDS011;17689;45.610;5.858;2022-08-01T14:48:52;1.67;;;1.50;;
31018;SDS011;17689;45.610;5.858;2022-08-01T14:51:19;1.63;;;1.53;;
31018;SDS011;17689;45.610;5.858;2022-08-01T14:53:45;1.77;;;1.67;;
31018;SDS011;17689;45.610;5.858;2022-08-01T14:56:11;4.23;;;1.40;;
31018;SDS011;17689;45.610;5.858;2022-08-01T14:58:37;1.83;;;1.60;;
31018;SDS011;17689;45.610;5.858;2022-08-01T15:01:03;1.73;;;1.57;;
31018;SDS011;17689;45.610;5.858;2022-08-01T15:03:30;3.60;;;1.60;;
31018;SDS011;17689;45.610;5.858;2022-08-01T15:05:57;1.97;;;1.70;;
31018;SDS011;17689;45.610;5.858;2022-08-01T15:08:23;2.63;;;1.60;;
31018;SDS011;17689;45.610;5.858;2022-08-01T15:10:49;1.90;;;1.50;;
31018;SDS011;17689;45.610;5.858;2022-08-01T15:13:15;3.57;;;1.70;;
31018;SDS011;17689;45.610;5.858;2022-08-01T15:15:41;1.87;;;1.70;;
31018;SDS011;17689;45.610;5.858;2022-08-01T15:18:07;2.47;;;1.60;;
31018;SDS011;17689;45.610;5.858;2022-08-01T15:20:34;3.30;;;1.80;;
31018;SDS011;17689;45.610;5.858;2022-08-01T15:23:00;2.90;;;1.73;;
31018;SDS011;17689;45.610;5.858;2022-08-01T15:25:26;1.60;;;1.50;;